createdAt,value
2022-11-12T00:02:26.219Z,59.07
2022-11-12T00:05:53.842Z,59.02
2022-11-12T00:09:24.227Z,58.56
2022-11-12T00:12:40.897Z,58.30
2022-11-12T00:16:24.490Z,58.54
2022-11-12T00:19:41.774Z,58.30
2022-11-12T00:23:29.330Z,58.08
2022-11-12T00:30:05.062Z,58.04
2022-11-12T00:36:51.032Z,58.04
2022-11-12T00:39:48.354Z,58.08
2022-11-12T00:46:08.562Z,58.12
2022-11-12T00:49:32.668Z,58.30
2022-11-12T00:56:30.553Z,58.65
2022-11-12T00:59:58.146Z,58.72
2022-11-12T01:03:12.753Z,58.93
2022-11-12T01:06:25.358Z,58.90
2022-11-12T01:09:32.642Z,59.00
2022-11-12T01:15:42.549Z,59.20
2022-11-12T01:19:02.990Z,59.37
2022-11-12T01:26:07.834Z,59.30
2022-11-12T01:32:50.230Z,59.48
2022-11-12T01:35:46.622Z,59.42
2022-11-12T01:39:32.271Z,59.69
2022-11-12T01:43:02.470Z,59.50
2022-11-12T01:47:04.293Z,59.64
2022-11-12T01:50:34.691Z,59.71
2022-11-12T01:53:55.751Z,59.75
2022-11-12T01:57:19.370Z,59.51
2022-11-12T02:00:36.937Z,59.58
2022-11-12T02:03:52.962Z,59.54
2022-11-12T02:07:06.296Z,59.56
2022-11-12T02:17:33.957Z,59.74
2022-11-12T02:20:37.036Z,59.78
2022-11-12T02:23:48.099Z,59.87
2022-11-12T02:30:56.719Z,60.01
2022-11-12T02:34:05.546Z,60.02
2022-11-12T02:37:09.307Z,60.21
2022-11-12T02:40:36.544Z,60.45
2022-11-12T02:44:00.019Z,60.45
2022-11-12T02:47:46.553Z,60.52
2022-11-12T02:50:48.519Z,60.69
2022-11-12T02:53:54.826Z,60.72
2022-11-12T02:56:52.074Z,60.71
2022-11-12T03:03:26.356Z,60.82
2022-11-12T03:07:03.670Z,60.71
2022-11-12T03:10:15.388Z,60.67
2022-11-12T03:16:56.480Z,60.74
2022-11-12T03:23:09.139Z,60.86
2022-11-12T03:26:03.919Z,60.90
2022-11-12T03:36:03.869Z,61.02
2022-11-12T03:38:53.882Z,61.05
2022-11-12T03:48:38.628Z,61.22
2022-11-12T03:51:35.325Z,61.14
2022-11-12T03:58:24.842Z,61.36
2022-11-12T04:01:18.026Z,61.44
2022-11-12T04:04:47.048Z,61.38
2022-11-12T04:08:30.066Z,61.56
2022-11-12T04:11:30.756Z,61.66
2022-11-12T04:14:37.791Z,61.78
2022-11-12T04:21:27.606Z,61.68
2022-11-12T04:28:08.915Z,61.91
2022-11-12T04:31:08.168Z,61.73
2022-11-12T04:37:56.267Z,61.62
2022-11-12T04:41:13.456Z,61.66
2022-11-12T04:44:20.803Z,61.63
2022-11-12T04:47:17.852Z,61.86
2022-11-12T04:50:12.432Z,61.60
2022-11-12T04:53:14.265Z,61.75
2022-11-12T04:56:11.318Z,61.65
2022-11-12T04:59:22.524Z,61.28
2022-11-12T05:02:24.661Z,61.36
2022-11-12T05:05:45.653Z,61.46
2022-11-12T05:08:49.024Z,61.07
2022-11-12T05:11:45.929Z,60.86
2022-11-12T05:14:36.332Z,60.89
2022-11-12T05:17:38.366Z,60.90
2022-11-12T05:20:48.776Z,60.81
2022-11-12T05:23:59.514Z,60.62
2022-11-12T05:27:02.635Z,60.43
2022-11-12T05:30:06.784Z,60.22
2022-11-12T05:33:20.559Z,60.51
2022-11-12T05:36:23.865Z,60.41
2022-11-12T05:39:51.392Z,60.62
2022-11-12T05:42:50.425Z,60.53
2022-11-12T05:45:45.772Z,60.31
2022-11-12T05:49:04.551Z,60.42
2022-11-12T05:52:18.600Z,60.42
2022-11-12T05:55:36.984Z,60.46
2022-11-12T06:02:47.469Z,60.39
2022-11-12T06:06:03.368Z,60.37
2022-11-12T06:09:46.414Z,60.25
2022-11-12T06:13:15.874Z,60.50
2022-11-12T06:17:06.805Z,60.56
2022-11-12T06:20:39.593Z,60.38
2022-11-12T06:27:44.827Z,60.66
2022-11-12T06:31:49.310Z,60.47
2022-11-12T06:42:39.993Z,61.02
2022-11-12T06:45:55.208Z,61.08
2022-11-12T06:56:25.793Z,61.57
2022-11-12T06:59:31.145Z,61.61
2022-11-12T07:02:52.550Z,61.65
2022-11-12T07:16:33.084Z,61.79
2022-11-12T07:19:45.464Z,61.81
2022-11-12T07:22:47.229Z,61.92
2022-11-12T07:26:12.995Z,62.09
2022-11-12T07:29:30.034Z,62.05
2022-11-12T07:32:55.322Z,62.13
2022-11-12T07:36:10.431Z,62.06
2022-11-12T07:39:58.949Z,62.34
2022-11-12T07:47:06.535Z,62.40
2022-11-12T07:50:29.756Z,62.36
2022-11-12T07:57:35.841Z,62.58
2022-11-12T08:01:05.900Z,62.58
2022-11-12T08:19:44.998Z,62.91
2022-11-12T08:23:04.275Z,62.85
2022-11-12T08:33:32.530Z,63.04
2022-11-12T08:36:46.478Z,62.86
2022-11-12T08:40:19.549Z,63.07
2022-11-12T08:43:47.352Z,63.10
2022-11-12T08:46:59.850Z,63.35
2022-11-12T08:53:52.135Z,63.27
2022-11-12T08:57:26.333Z,63.38
2022-11-12T09:13:00.475Z,63.30
2022-11-12T09:40:55.573Z,63.05
2022-11-12T14:53:21.944Z,57.28
2022-11-12T15:03:54.197Z,57.21
2022-11-12T15:07:02.206Z,57.32
2022-11-12T15:17:35.962Z,57.57
2022-11-12T15:20:43.395Z,57.38
2022-11-12T15:27:56.014Z,57.39
2022-11-12T15:31:29.540Z,57.43
2022-11-12T15:35:18.212Z,57.38
2022-11-12T15:39:03.716Z,57.26
2022-11-12T15:42:16.742Z,57.25
2022-11-12T15:45:15.248Z,57.06
2022-11-12T15:48:54.510Z,57.33
2022-11-12T15:52:11.148Z,57.18
2022-11-12T15:55:18.554Z,57.55
2022-11-12T15:59:03.682Z,57.64
2022-11-12T16:01:52.786Z,57.84
2022-11-12T16:05:08.942Z,57.87
2022-11-12T16:08:12.401Z,58.02
2022-11-12T16:12:07.030Z,58.34
2022-11-12T16:15:54.749Z,58.48
2022-11-12T16:19:00.503Z,58.54
2022-11-12T16:25:26.930Z,59.02
2022-11-12T16:28:24.322Z,59.21
2022-11-12T16:31:22.834Z,59.28
2022-11-12T16:34:26.630Z,59.61
2022-11-12T16:37:18.442Z,59.46
2022-11-12T16:40:17.285Z,59.59
2022-11-12T16:53:39.814Z,60.23
2022-11-12T16:56:46.430Z,60.53
2022-11-12T16:59:49.211Z,60.38
2022-11-12T17:02:50.686Z,60.61
2022-11-12T17:05:45.539Z,60.87
2022-11-12T17:08:51.349Z,60.97
2022-11-12T17:15:44.554Z,61.17
2022-11-12T17:19:27.831Z,61.28
2022-11-12T17:26:27.496Z,61.47
2022-11-12T17:33:48.780Z,61.88
2022-11-12T17:44:36.914Z,62.30
2022-11-12T17:47:31.228Z,62.20
2022-11-12T17:53:47.989Z,62.17
2022-11-12T18:08:56.110Z,62.58
2022-11-12T18:22:52.349Z,62.75
2022-11-12T18:29:17.917Z,63.05
2022-11-12T18:36:21.131Z,63.22
2022-11-12T18:39:40.898Z,63.35
2022-11-12T18:42:45.216Z,63.43
2022-11-12T18:46:00.859Z,63.49
2022-11-12T18:52:03.666Z,63.63
2022-11-12T18:55:28.183Z,63.85
2022-11-12T19:05:47.678Z,64.01
2022-11-12T19:12:37.919Z,63.88
2022-11-12T19:15:47.058Z,63.87
2022-11-12T19:18:45.649Z,63.98
2022-11-12T19:22:16.878Z,64.09
2022-11-12T19:25:10.712Z,64.13
2022-11-12T19:28:35.292Z,64.12
2022-11-12T19:32:19.832Z,64.16
2022-11-12T19:35:53.873Z,64.28
2022-11-12T19:39:15.345Z,64.45
2022-11-12T19:42:10.379Z,64.52
2022-11-12T19:45:29.826Z,64.69
2022-11-12T19:48:19.733Z,64.58
2022-11-12T19:51:28.496Z,64.76
2022-11-12T19:58:14.235Z,64.74
2022-11-12T20:01:06.934Z,64.83
2022-11-12T20:04:23.926Z,64.64
2022-11-12T20:07:42.584Z,64.84
2022-11-12T20:10:34.058Z,64.79
2022-11-12T20:13:30.227Z,64.67
2022-11-12T20:16:37.072Z,64.97
2022-11-12T20:19:34.183Z,64.99
2022-11-12T20:22:30.701Z,64.66
2022-11-12T20:25:28.938Z,65.10
2022-11-12T20:28:29.539Z,64.96
